createdAt,value
2022-10-19T00:01:21.605Z,2.55
2022-10-19T00:03:52.920Z,2.20
2022-10-19T00:06:27.135Z,2.20
2022-10-19T00:08:58.104Z,3.13
2022-10-19T00:11:26.477Z,2.50
2022-10-19T00:13:55.116Z,2.10
2022-10-19T00:16:24.009Z,2.25
2022-10-19T00:18:51.598Z,2.33
2022-10-19T00:21:19.944Z,2.90
2022-10-19T00:23:48.652Z,2.67
2022-10-19T00:26:16.235Z,2.55
2022-10-19T00:28:44.036Z,2.47
2022-10-19T00:31:14.629Z,3.60
2022-10-19T00:33:44.264Z,3.95
2022-10-19T00:36:21.968Z,4.45
2022-10-19T00:38:50.342Z,3.70
2022-10-19T00:41:19.110Z,3.67
2022-10-19T00:44:02.398Z,3.70
2022-10-19T00:46:35.691Z,2.92
2022-10-19T00:49:13.260Z,3.25
2022-10-19T00:51:44.974Z,4.75
2022-10-19T00:54:12.754Z,3.90
2022-10-19T00:56:42.877Z,2.72
2022-10-19T00:59:11.083Z,3.10
2022-10-19T01:01:38.594Z,2.50
2022-10-19T01:04:06.170Z,2.90
2022-10-19T01:06:35.185Z,2.50
2022-10-19T01:09:02.763Z,2.33
2022-10-19T01:11:39.089Z,2.58
2022-10-19T01:14:43.830Z,2.88
2022-10-19T01:17:20.355Z,3.17
2022-10-19T01:20:06.082Z,2.60
2022-10-19T01:23:01.334Z,3.05
2022-10-19T01:26:09.630Z,2.42
2022-10-19T01:29:04.054Z,2.10
2022-10-19T01:31:59.088Z,2.42
2022-10-19T01:34:42.072Z,2.85
2022-10-19T01:37:24.362Z,2.78
2022-10-19T01:40:03.979Z,2.28
2022-10-19T01:42:57.450Z,2.45
2022-10-19T01:45:38.694Z,2.30
2022-10-19T01:51:06.385Z,2.55
2022-10-19T01:53:40.271Z,2.63
2022-10-19T01:56:09.084Z,2.10
2022-10-19T01:58:39.067Z,2.42
2022-10-19T02:03:40.224Z,3.05
2022-10-19T02:06:10.864Z,2.58
2022-10-19T02:08:46.518Z,2.92
2022-10-19T02:11:15.779Z,2.20
2022-10-19T02:13:46.289Z,2.63
2022-10-19T02:16:20.341Z,2.58
2022-10-19T02:18:51.604Z,2.47
2022-10-19T02:21:19.429Z,2.33
2022-10-19T02:23:48.354Z,3.60
2022-10-19T02:26:18.528Z,2.17
2022-10-19T02:28:46.533Z,2.97
2022-10-19T02:31:14.186Z,2.08
2022-10-19T02:33:41.654Z,2.30
2022-10-19T02:36:09.116Z,2.50
2022-10-19T02:38:36.812Z,2.63
2022-10-19T02:41:04.284Z,2.10
2022-10-19T02:43:36.251Z,2.45
2022-10-19T02:46:15.834Z,2.88
2022-10-19T02:48:44.902Z,2.33
2022-10-19T02:51:37.520Z,2.13
2022-10-19T02:54:07.415Z,2.85
2022-10-19T02:56:35.439Z,2.47
2022-10-19T02:59:03.761Z,3.03
2022-10-19T03:01:31.139Z,3.35
2022-10-19T03:03:58.622Z,2.88
2022-10-19T03:06:25.992Z,2.60
2022-10-19T03:08:53.365Z,3.05
2022-10-19T03:11:20.837Z,2.38
2022-10-19T03:16:20.723Z,3.65
2022-10-19T03:18:49.746Z,3.55
2022-10-19T03:21:18.516Z,2.95
2022-10-19T03:23:45.920Z,2.80
2022-10-19T03:26:16.322Z,3.25
2022-10-19T03:28:43.949Z,3.58
2022-10-19T03:31:11.727Z,4.22
2022-10-19T03:33:39.767Z,3.10
2022-10-19T03:36:27.219Z,4.00
2022-10-19T03:38:57.113Z,3.38
2022-10-19T03:41:27.603Z,3.50
2022-10-19T03:43:55.202Z,3.17
2022-10-19T03:46:22.948Z,2.75
2022-10-19T03:48:50.459Z,3.45
2022-10-19T03:51:20.703Z,3.17
2022-10-19T03:53:51.858Z,4.40
2022-10-19T03:56:21.458Z,2.55
2022-10-19T03:58:50.074Z,3.40
2022-10-19T04:01:29.335Z,2.63
2022-10-19T04:04:06.094Z,2.90
2022-10-19T04:06:38.705Z,2.58
2022-10-19T04:09:07.114Z,4.15
2022-10-19T04:11:35.511Z,3.33
2022-10-19T04:14:03.923Z,3.58
2022-10-19T04:16:32.206Z,3.83
2022-10-19T04:19:01.180Z,3.08
2022-10-19T04:21:34.152Z,3.25
2022-10-19T04:24:02.887Z,3.50
2022-10-19T04:26:30.508Z,2.90
2022-10-19T04:28:59.014Z,4.47
2022-10-19T04:31:27.893Z,3.85
2022-10-19T04:33:56.159Z,4.05
2022-10-19T04:36:23.993Z,3.20
2022-10-19T04:38:51.899Z,4.20
2022-10-19T04:41:21.056Z,4.22
2022-10-19T04:43:50.006Z,3.92
2022-10-19T04:46:19.379Z,4.43
2022-10-19T04:48:47.941Z,5.05
2022-10-19T04:51:16.731Z,4.15
2022-10-19T04:53:44.606Z,4.72
2022-10-19T04:56:18.679Z,4.18
2022-10-19T04:58:46.473Z,4.05
2022-10-19T05:01:17.879Z,4.82
2022-10-19T05:03:46.012Z,4.40
2022-10-19T05:06:14.649Z,4.80
2022-10-19T05:08:42.150Z,4.53
2022-10-19T05:11:14.440Z,4.93
2022-10-19T05:13:42.862Z,4.95
2022-10-19T05:16:16.271Z,4.97
2022-10-19T05:18:46.822Z,4.85
2022-10-19T05:21:15.177Z,4.90
2022-10-19T05:23:42.689Z,5.28
2022-10-19T05:26:17.462Z,5.20
2022-10-19T05:28:49.371Z,5.68
2022-10-19T05:31:20.913Z,5.88
2022-10-19T05:33:48.405Z,5.97
2022-10-19T05:36:22.066Z,6.93
2022-10-19T05:38:50.546Z,5.50
2022-10-19T05:41:18.370Z,5.30
2022-10-19T05:43:46.814Z,6.43
2022-10-19T05:46:17.950Z,6.70
2022-10-19T05:48:47.251Z,5.90
2022-10-19T05:51:18.978Z,7.03
2022-10-19T05:53:46.742Z,5.68
2022-10-19T05:56:20.245Z,6.03
2022-10-19T05:58:48.609Z,6.93
2022-10-19T06:01:18.888Z,5.90
2022-10-19T06:03:47.371Z,5.85
2022-10-19T06:06:14.782Z,5.82
2022-10-19T06:08:42.389Z,6.10
2022-10-19T06:11:15.249Z,5.57
2022-10-19T06:13:43.986Z,6.28
2022-10-19T06:16:13.449Z,6.60
2022-10-19T06:18:42.827Z,7.43
2022-10-19T06:21:18.778Z,6.05
2022-10-19T06:23:53.874Z,6.97
2022-10-19T06:26:21.745Z,7.25
2022-10-19T06:28:49.998Z,6.45
2022-10-19T06:31:18.090Z,8.05
2022-10-19T06:33:48.630Z,6.30
2022-10-19T06:36:20.508Z,6.57
2022-10-19T06:41:15.992Z,7.57
2022-10-19T06:43:43.650Z,6.80
2022-10-19T06:46:14.933Z,7.50
2022-10-19T06:48:42.425Z,8.00
2022-10-19T06:51:10.040Z,7.75
2022-10-19T06:53:37.504Z,7.53
2022-10-19T06:56:06.390Z,7.00
2022-10-19T06:58:38.190Z,6.88
2022-10-19T07:01:10.256Z,5.68
2022-10-19T07:03:38.205Z,6.60
2022-10-19T07:06:10.837Z,6.38
2022-10-19T07:08:40.458Z,4.93
2022-10-19T07:11:11.496Z,6.30
2022-10-19T07:16:14.584Z,5.93
2022-10-19T07:18:45.598Z,5.20
2022-10-19T07:21:15.293Z,6.07
2022-10-19T07:23:45.309Z,6.35
2022-10-19T07:26:27.834Z,5.35
2022-10-19T07:28:57.422Z,4.80
2022-10-19T07:31:26.833Z,5.13
2022-10-19T07:34:03.105Z,5.40
2022-10-19T07:36:33.372Z,4.50
2022-10-19T07:39:06.436Z,5.00
2022-10-19T07:41:37.273Z,5.45
2022-10-19T07:44:05.223Z,5.35
2022-10-19T07:46:33.815Z,4.60
2022-10-19T07:49:01.448Z,5.15
2022-10-19T07:54:01.361Z,4.50
2022-10-19T07:56:29.242Z,5.80
2022-10-19T07:58:58.754Z,4.82
2022-10-19T08:01:32.097Z,6.50
2022-10-19T08:06:48.090Z,6.50
2022-10-19T08:09:33.782Z,6.10
2022-10-19T08:12:04.266Z,5.30
2022-10-19T08:14:31.863Z,4.75
2022-10-19T08:16:59.879Z,5.88
2022-10-19T08:19:27.335Z,5.53
2022-10-19T08:21:54.732Z,6.82
2022-10-19T08:24:22.138Z,6.28
2022-10-19T08:26:51.318Z,5.55
2022-10-19T08:29:20.620Z,6.90
2022-10-19T08:31:49.273Z,5.88
2022-10-19T08:34:17.705Z,5.55
2022-10-19T08:36:46.036Z,5.70
2022-10-19T08:39:14.374Z,5.82
2022-10-19T08:42:08.378Z,6.28
2022-10-19T08:45:20.279Z,5.25
2022-10-19T08:48:15.347Z,6.63
2022-10-19T08:50:44.627Z,5.22
2022-10-19T08:53:33.492Z,5.22
2022-10-19T08:56:26.825Z,6.13
2022-10-19T08:59:08.729Z,6.38
2022-10-19T09:01:50.837Z,5.15
2022-10-19T09:04:32.135Z,5.82
2022-10-19T09:07:26.780Z,5.28
2022-10-19T09:10:14.726Z,5.28
2022-10-19T09:12:48.039Z,4.88
2022-10-19T09:15:18.908Z,6.00
2022-10-19T09:17:46.721Z,4.60
2022-10-19T09:20:24.009Z,5.85
2022-10-19T09:23:01.056Z,4.72
2022-10-19T09:25:30.832Z,6.22
2022-10-19T09:28:29.169Z,4.90
2022-10-19T09:31:02.249Z,5.55
2022-10-19T09:33:37.263Z,5.43
2022-10-19T09:36:07.212Z,6.57
2022-10-19T09:38:34.746Z,5.50
2022-10-19T09:41:18.107Z,5.47
2022-10-19T09:43:53.110Z,5.85
2022-10-19T09:46:38.780Z,5.65
2022-10-19T09:49:06.754Z,5.25
2022-10-19T09:51:47.041Z,5.18
2022-10-19T09:54:26.282Z,6.32
2022-10-19T09:56:55.978Z,6.03
2022-10-19T09:59:28.391Z,5.95
2022-10-19T10:02:18.800Z,5.32
2022-10-19T10:05:16.093Z,5.95
2022-10-19T10:07:44.288Z,5.95
2022-10-19T10:10:21.163Z,6.03
2022-10-19T10:12:48.905Z,4.93
2022-10-19T10:15:21.701Z,5.55
2022-10-19T10:17:50.218Z,6.18
2022-10-19T10:20:23.508Z,6.72
2022-10-19T10:23:23.060Z,4.68
2022-10-19T10:25:50.523Z,5.55
2022-10-19T10:28:20.848Z,4.95
2022-10-19T10:30:53.310Z,6.43
2022-10-19T10:33:40.270Z,5.60
2022-10-19T10:36:12.537Z,5.85
2022-10-19T10:38:46.994Z,5.10
2022-10-19T10:41:25.577Z,5.43
2022-10-19T10:43:58.599Z,5.15
2022-10-19T10:46:37.060Z,5.43
2022-10-19T10:49:15.879Z,5.75
2022-10-19T10:51:49.271Z,6.25
2022-10-19T10:54:25.220Z,6.50
2022-10-19T10:57:16.776Z,5.13
2022-10-19T10:59:59.663Z,6.05
2022-10-19T11:02:46.285Z,5.68
2022-10-19T11:05:37.411Z,5.22
2022-10-19T11:10:57.488Z,5.90
2022-10-19T11:13:30.368Z,5.07
2022-10-19T11:16:02.721Z,5.65
2022-10-19T11:18:42.281Z,5.97
2022-10-19T11:21:31.023Z,6.78
2022-10-19T11:24:20.144Z,5.25
2022-10-19T11:27:07.960Z,4.65
2022-10-19T11:29:55.398Z,5.38
2022-10-19T11:33:00.267Z,5.40
2022-10-19T11:35:33.644Z,4.57
2022-10-19T11:38:29.827Z,6.40
2022-10-19T11:41:17.386Z,5.25
2022-10-19T11:43:54.820Z,5.05
2022-10-19T11:46:40.750Z,4.65
2022-10-19T11:49:33.047Z,4.95
2022-10-19T11:52:24.214Z,5.18
2022-10-19T11:55:16.297Z,4.50
2022-10-19T11:57:58.587Z,4.70
2022-10-19T12:00:39.053Z,4.93
2022-10-19T12:03:54.465Z,5.00
2022-10-19T12:06:59.672Z,6.00
2022-10-19T12:09:48.142Z,5.07
2022-10-19T12:12:21.256Z,5.60
2022-10-19T12:14:54.545Z,5.40
2022-10-19T12:17:30.800Z,6.18
2022-10-19T12:20:17.509Z,5.50
2022-10-19T12:22:49.360Z,4.93
2022-10-19T12:25:19.100Z,4.88
2022-10-19T12:27:49.089Z,7.65
2022-10-19T12:30:22.155Z,6.40
2022-10-19T12:33:03.498Z,6.03
2022-10-19T12:35:55.905Z,5.57
2022-10-19T12:38:40.868Z,6.05
2022-10-19T12:41:36.557Z,6.18
2022-10-19T12:44:31.254Z,5.72
2022-10-19T12:47:09.871Z,4.32
2022-10-19T12:49:43.850Z,4.75
2022-10-19T12:52:12.697Z,5.43
2022-10-19T12:54:42.087Z,5.57
2022-10-19T12:57:28.138Z,5.57
2022-10-19T13:00:18.816Z,5.65
2022-10-19T13:02:48.560Z,5.22
2022-10-19T13:05:24.292Z,5.38
2022-10-19T13:10:22.759Z,6.25
2022-10-19T13:15:36.138Z,5.47
2022-10-19T13:18:16.580Z,5.15
2022-10-19T13:20:53.823Z,4.97
2022-10-19T13:23:21.134Z,5.30
2022-10-19T13:26:27.252Z,5.32
2022-10-19T13:28:56.057Z,5.30
2022-10-19T13:31:27.071Z,5.47
2022-10-19T13:33:55.516Z,5.10
2022-10-19T13:36:24.883Z,5.68
2022-10-19T13:39:05.776Z,7.28
2022-10-19T13:41:39.049Z,5.03
2022-10-19T13:44:12.399Z,5.30
2022-10-19T13:50:20.607Z,4.63
2022-10-19T13:52:48.015Z,5.07
2022-10-19T13:55:22.024Z,4.95
2022-10-19T13:58:34.879Z,5.07
2022-10-19T14:01:55.788Z,5.28
2022-10-19T14:07:35.614Z,5.65
2022-10-19T14:10:08.315Z,4.32
2022-10-19T14:12:40.829Z,6.10
2022-10-19T14:15:27.387Z,5.50
2022-10-19T14:17:56.049Z,5.72
2022-10-19T14:20:28.690Z,5.60
2022-10-19T14:22:56.266Z,5.10
2022-10-19T14:25:27.280Z,5.85
2022-10-19T14:28:04.722Z,6.07
2022-10-19T14:30:35.605Z,6.35
2022-10-19T14:33:09.567Z,6.22
2022-10-19T14:35:39.450Z,5.70
2022-10-19T14:38:08.915Z,6.63
2022-10-19T14:40:41.702Z,6.50
2022-10-19T14:43:22.633Z,5.35
2022-10-19T14:48:38.137Z,6.65
2022-10-19T14:51:14.367Z,5.53
2022-10-19T14:53:57.253Z,6.40
2022-10-19T14:56:36.738Z,6.78
2022-10-19T14:59:14.510Z,7.82
2022-10-19T15:01:50.052Z,7.32
2022-10-19T15:04:21.547Z,7.57
2022-10-19T15:06:50.047Z,6.75
2022-10-19T15:09:37.273Z,6.78
2022-10-19T15:12:18.375Z,6.30
2022-10-19T15:14:47.725Z,7.57
2022-10-19T15:17:30.729Z,7.68
2022-10-19T15:20:02.818Z,7.78
2022-10-19T15:22:32.009Z,7.05
2022-10-19T15:25:06.909Z,7.60
2022-10-19T15:27:37.373Z,7.18
2022-10-19T15:30:17.290Z,7.22
2022-10-19T15:32:46.506Z,7.53
2022-10-19T15:35:32.826Z,7.75
2022-10-19T15:38:23.052Z,7.78
2022-10-19T15:40:57.534Z,7.88
2022-10-19T15:43:34.932Z,7.68
2022-10-19T15:46:20.153Z,7.13
2022-10-19T15:48:52.502Z,7.88
2022-10-19T15:51:25.516Z,8.25
2022-10-19T15:53:54.052Z,9.45
2022-10-19T15:56:23.136Z,7.82
2022-10-19T15:58:51.956Z,7.78
2022-10-19T16:01:22.679Z,8.35
2022-10-19T16:06:18.657Z,7.25
2022-10-19T16:08:46.619Z,7.20
2022-10-19T16:11:19.653Z,7.57
2022-10-19T16:13:47.379Z,8.02
2022-10-19T16:16:26.982Z,7.93
2022-10-19T16:18:54.913Z,7.65
2022-10-19T16:21:26.261Z,7.95
2022-10-19T16:23:53.809Z,7.68
2022-10-19T16:26:22.072Z,8.25
2022-10-19T16:28:49.485Z,8.00
2022-10-19T16:31:17.638Z,10.90
2022-10-19T16:33:45.076Z,8.35
2022-10-19T16:36:13.109Z,9.48
2022-10-19T16:38:40.623Z,9.00
2022-10-19T16:41:10.269Z,10.23
2022-10-19T16:43:38.301Z,9.00
2022-10-19T16:46:06.301Z,7.80
2022-10-19T16:48:34.194Z,8.45
2022-10-19T16:51:07.987Z,10.00
2022-10-19T16:53:36.335Z,8.07
2022-10-19T16:56:05.677Z,9.45
2022-10-19T16:58:33.041Z,8.63
2022-10-19T17:01:10.355Z,8.68
2022-10-19T17:03:37.943Z,9.13
2022-10-19T17:06:07.637Z,8.80
2022-10-19T17:08:36.958Z,9.63
2022-10-19T17:11:12.843Z,9.43
2022-10-19T17:13:40.910Z,10.32
2022-10-19T17:16:09.469Z,9.20
2022-10-19T17:18:37.926Z,10.75
2022-10-19T17:21:10.617Z,8.98
2022-10-19T17:23:38.325Z,9.48
2022-10-19T17:26:07.102Z,9.43
2022-10-19T17:28:36.114Z,9.40
2022-10-19T17:31:08.633Z,9.23
2022-10-19T17:33:37.378Z,10.32
2022-10-19T17:36:10.876Z,10.27
2022-10-19T17:38:39.427Z,9.75
2022-10-19T17:41:09.605Z,9.73
2022-10-19T17:43:38.970Z,10.45
2022-10-19T17:46:08.681Z,10.50
2022-10-19T17:48:37.745Z,9.57
2022-10-19T17:51:07.863Z,9.77
2022-10-19T17:53:35.627Z,11.00
2022-10-19T17:56:05.526Z,11.52
2022-10-19T17:58:39.097Z,12.20
2022-10-19T18:01:08.605Z,11.48
2022-10-19T18:03:38.849Z,12.60
2022-10-19T18:06:34.139Z,11.02
2022-10-19T18:09:05.585Z,12.80
2022-10-19T18:11:37.281Z,13.52
2022-10-19T18:14:06.289Z,13.70
2022-10-19T18:16:36.667Z,13.65
2022-10-19T18:19:04.849Z,14.63
2022-10-19T18:21:35.424Z,14.60
2022-10-19T18:24:03.521Z,14.57
2022-10-19T18:26:35.537Z,13.02
2022-10-19T18:29:10.667Z,14.23
2022-10-19T18:31:39.476Z,12.60
2022-10-19T18:34:08.735Z,12.38
2022-10-19T18:36:36.205Z,12.98
2022-10-19T18:39:05.479Z,13.00
2022-10-19T18:41:33.352Z,12.75
2022-10-19T18:44:05.086Z,12.75
2022-10-19T18:46:34.715Z,14.50
2022-10-19T18:49:04.016Z,15.23
2022-10-19T18:51:32.016Z,13.80
2022-10-19T18:53:59.866Z,13.45
2022-10-19T18:56:29.273Z,14.15
2022-10-19T18:58:56.914Z,12.73
2022-10-19T19:01:26.937Z,12.57
2022-10-19T19:03:57.341Z,13.73
2022-10-19T19:06:28.919Z,14.65
2022-10-19T19:09:03.231Z,14.13
2022-10-19T19:11:36.000Z,12.88
2022-10-19T19:14:12.079Z,13.90
2022-10-19T19:16:40.810Z,14.82
2022-10-19T19:19:10.577Z,15.57
2022-10-19T19:21:40.977Z,15.57
2022-10-19T19:24:08.586Z,14.82
2022-10-19T19:26:39.095Z,15.75
2022-10-19T19:29:06.936Z,15.18
2022-10-19T19:31:34.912Z,14.82
2022-10-19T19:34:03.108Z,15.05
2022-10-19T19:36:30.597Z,15.93
2022-10-19T19:38:59.087Z,14.70
2022-10-19T19:41:27.634Z,14.00
2022-10-19T19:43:57.911Z,15.40
2022-10-19T19:46:26.327Z,15.45
2022-10-19T19:49:00.101Z,15.90
2022-10-19T19:51:28.360Z,16.30
2022-10-19T19:53:56.485Z,15.30
2022-10-19T19:56:24.500Z,14.00
2022-10-19T19:58:55.936Z,15.32
2022-10-19T20:01:24.163Z,16.67
2022-10-19T20:03:51.967Z,14.90
2022-10-19T20:06:23.504Z,15.32
2022-10-19T20:08:55.203Z,15.52
2022-10-19T20:11:24.566Z,14.98
2022-10-19T20:13:52.299Z,14.10
2022-10-19T20:16:29.079Z,15.52
2022-10-19T20:19:07.213Z,17.15
2022-10-19T20:21:34.854Z,17.40
2022-10-19T20:24:03.017Z,17.38
2022-10-19T20:26:30.501Z,17.85
2022-10-19T20:28:58.203Z,20.50
2022-10-19T20:31:25.937Z,20.27
2022-10-19T20:33:53.420Z,23.05
2022-10-19T20:36:25.912Z,24.60
2022-10-19T20:38:57.893Z,25.50
2022-10-19T20:41:27.753Z,23.10
2022-10-19T20:43:55.708Z,21.48
2022-10-19T20:46:25.965Z,21.15
2022-10-19T20:48:54.736Z,22.55
2022-10-19T20:51:30.571Z,23.55
2022-10-19T20:54:01.684Z,22.23
2022-10-19T20:56:32.610Z,20.27
2022-10-19T20:59:05.488Z,20.33
2022-10-19T21:01:34.596Z,21.83
2022-10-19T21:04:04.587Z,18.63
2022-10-19T21:06:34.906Z,22.10
2022-10-19T21:09:02.434Z,19.48
2022-10-19T21:11:32.701Z,17.25
2022-10-19T21:14:09.312Z,16.50
2022-10-19T21:16:37.818Z,16.75
2022-10-19T21:19:08.754Z,16.92
2022-10-19T21:24:16.753Z,16.55
2022-10-19T21:26:44.522Z,17.77
2022-10-19T21:29:13.259Z,15.88
2022-10-19T21:31:47.989Z,19.88
2022-10-19T21:34:19.881Z,18.48
2022-10-19T21:36:47.845Z,16.73
2022-10-19T21:39:15.386Z,16.48
2022-10-19T21:41:42.802Z,16.65
2022-10-19T21:44:10.724Z,15.60
2022-10-19T21:46:38.214Z,17.80
2022-10-19T21:49:05.692Z,16.13
2022-10-19T21:51:44.025Z,16.85
2022-10-19T21:54:17.370Z,17.73
2022-10-19T21:56:45.827Z,18.55
2022-10-19T21:59:14.568Z,17.83
2022-10-19T22:01:42.280Z,17.88
2022-10-19T22:04:18.332Z,19.98
2022-10-19T22:06:46.404Z,18.80
2022-10-19T22:09:17.555Z,17.88
2022-10-19T22:11:45.430Z,17.13
2022-10-19T22:14:14.674Z,17.92
2022-10-19T22:16:42.799Z,16.00
2022-10-19T22:19:10.913Z,17.13
2022-10-19T22:24:14.188Z,16.67
2022-10-19T22:26:47.944Z,18.80
2022-10-19T22:29:15.393Z,18.08
2022-10-19T22:31:43.314Z,18.10
2022-10-19T22:34:15.902Z,18.02
2022-10-19T22:36:44.387Z,18.30
2022-10-19T22:39:12.461Z,18.83
2022-10-19T22:42:18.871Z,19.67
2022-10-19T22:44:46.257Z,18.77
2022-10-19T22:47:14.454Z,19.45
2022-10-19T22:49:42.278Z,23.60
2022-10-19T22:52:09.891Z,23.27
2022-10-19T22:54:37.458Z,23.52
2022-10-19T22:57:07.473Z,22.27
2022-10-19T22:59:35.032Z,21.97
2022-10-19T23:02:02.621Z,22.75
2022-10-19T23:04:30.185Z,21.05
2022-10-19T23:06:57.670Z,19.33
2022-10-19T23:09:25.247Z,18.80
2022-10-19T23:11:52.749Z,19.35
2022-10-19T23:14:20.144Z,18.65
2022-10-19T23:16:47.931Z,18.65
2022-10-19T23:19:15.438Z,20.13
2022-10-19T23:21:42.800Z,20.33
2022-10-19T23:24:10.155Z,19.23
2022-10-19T23:26:37.741Z,19.92
2022-10-19T23:29:05.153Z,22.42
2022-10-19T23:31:33.491Z,23.35
2022-10-19T23:34:01.052Z,23.95
2022-10-19T23:36:29.685Z,26.25
2022-10-19T23:38:58.460Z,26.55
2022-10-19T23:41:26.083Z,23.35
2022-10-19T23:43:53.617Z,22.85
2022-10-19T23:46:21.061Z,25.40
2022-10-19T23:48:48.523Z,24.35
2022-10-19T23:51:18.323Z,22.10
2022-10-19T23:53:47.668Z,22.45
2022-10-19T23:56:17.173Z,21.90
2022-10-19T23:58:45.573Z,22.85
